Logo AVAMET
Benvolgut visitant, si us plau, ingressa Recuperar contrasenya
AVAMET paisatges

Inforatge Catarroja Nord

Dades diàries. Acumulats / Últims 30 dies disponibles

Data Temperatura (°C) Humitat rel. (%) Pressió rel. (hPa) Vent (km/h) Precipitació
Mínima Mitjana Màxima Amplitud
tèrmica
Mínima Mitjana Màxima Mínima Mitjana Màxima Predom. Mitjana Ràfega
màxima
Total
(mm)
Índex-n
Mínima Mitjana Màxima Mínima Mitjana Màxima n
0 a 1
P0 max
mm 5'
Dades mensuals acumulades fins l'últim dia disponible
02/2020 6,4 10,7 14,7 14,8 15,0 20,1 26,4 20,0 32 75 95 1.023 1.028 1.034   2,7 33,8 0,0
Dades anuals acumulades fins l'últim dia disponible
2020 2,7 8,4 14,8 12,3 8,8 17,1 26,4 23,7 32 77 97 1.016 1.028 1.037   4,5 88,5 131,2
Últims 30 dies disponibles
16-02-2020 8,7     12,3     15,7 7,0 80 90 95 1.027 1.029 1.031 NE 2,7 14,5 0,0
15-02-2020 8,0     12,7     17,2 9,2 64 82 91 1.027 1.029 1.030 W 2,3 17,7 0,0
14-02-2020 10,9     14,8     21,3 10,4 47 71 84 1.026 1.027 1.029 W 1,4 16,1 0,0
13-02-2020 9,9     14,2     19,0 9,1 67 84 93 1.023 1.025 1.026 W 1,1 14,5 0,0
12-02-2020 10,8     14,3     18,8 8,0 62 82 89 1.026 1.027 1.028 NE 2,3 19,3 0,0
11-02-2020 13,6     17,3     24,0 10,4 42 68 86 1.024 1.026 1.029 WSW 2,7 17,7 0,0
10-02-2020 12,9     17,7     23,5 10,6 51 63 74 1.028 1.030 1.033 SW 5,5 24,1 0,0
09-02-2020 8,4     12,3     16,8 8,4 65 84 92 1.030 1.032 1.034 W 1,3 14,5 0,0
08-02-2020 6,4     11,2     16,5 10,1 66 83 91 1.026 1.028 1.030 ENE 1,4 14,5 0,0
07-02-2020 8,3     11,4     15,0 6,7 69 82 89 1.026 1.027 1.029 W 1,0 12,9 0,0
06-02-2020 7,2     11,5     15,0 7,8 65 81 91 1.028 1.030 1.032 W 2,3 19,3 0,0
05-02-2020 10,6     13,2     17,2 6,6 56 70 83 1.029 1.031 1.033 NE 3,9 29,0 0,0
04-02-2020 13,5     18,7     26,4 12,9 32 56 76 1.024 1.027 1.029 WSW 2,7 17,7 0,0
03-02-2020 13,7     17,7     25,4 11,7 44 68 79 1.028 1.030 1.032 WSW 1,6 14,5 0,0
02-02-2020 14,7     18,2     24,3 9,6 52 69 78 1.028 1.030 1.032 SW 3,5 22,5 0,0
01-02-2020 13,6     18,7     24,7 11,1 51 68 79 1.023 1.025 1.029 WSW 6,8 33,8 0,0
31-01-2020 14,5     16,9     21,2 6,7 58 66 75 1.023 1.024 1.026 OSO 7,4 37,0 0,0
30-01-2020 13,9     16,6     20,1 6,2 49 64 75 1.022 1.024 1.025 SW 8,4 45,1 0,0
29-01-2020 14,8     16,9     20,2 5,4 61 69 76 1.023 1.024 1.026 SW 7,6 35,4 0,0
28-01-2020 13,8     15,7     17,6 3,8 65 69 74 1.023 1.024 1.025 WSW 8,7 45,1 0,0
27-01-2020 8,7     12,3     16,7 8,0 54 68 82 1.023 1.025 1.028 SW 6,9 32,2 0,0
26-01-2020 9,6     12,6     17,6 8,0 53 82 95 1.021 1.023 1.027 W 2,7 22,5 0,0
25-01-2020 10,5     12,1     13,6 3,1 80 90 94 1.020 1.022 1.024 NE 1,8 19,3 0,2
24-01-2020 8,7     11,7     15,3 6,6 73 87 93 1.023 1.025 1.026 NNE 0,8 12,9 0,0
23-01-2020 5,2     9,9     13,1 7,9 73 86 92 1.022 1.024 1.026 NE 1,4 14,5 0,0
22-01-2020 8,0     10,6     12,4 4,4 80 90 96 1.020 1.021 1.023 NNE 4,8 37,0 16,0
21-01-2020 7,5     9,8     12,2 4,7 92 97 97 1.016 1.019 1.024 NNE 10,9 70,8 68,2
20-01-2020 4,6     6,6     8,8 4,2 73 90 96 1.021 1.023 1.024 NNE 29,5 88,5 25,8
19-01-2020 6,3     9,7     15,0 8,7 72 83 95 1.018 1.020 1.024 N 15,9 83,7 21,0
18-01-2020 8,0     13,1     17,9 9,9 51 67 77 1.022 1.030 1.035 SW 4,2 33,8 0,0
Últims 13 mesos disponibles
01/2020 2,7 7,2 14,8 11,0 8,8 15,6 21,2 18,5 57 78 97 1.019 1.028 1.035 W 5,4 88,5 131,2
12/2019 5,8 10,8 18,1 13,9 13,6 17,8 24,7 18,9 55 72 93 1.004 1.021 1.035 WSW 8,3 112,7 71,4
11/2019 6,2 12,2 21,0 15,7 15,8 19,8 29,1 22,9 43 58 79 1.001 1.013 1.021 WSW 10,3 66,0 4,0
10/2019 11,7 16,2 20,6 20,1 16,2 24,6 28,1 16,4 44 72 87 1.010 1.019 1.024 WNW 4,2 45,1 24,8
09/2019 15,6 20,5 23,8 23,8 21,6 27,2 33,9 18,3 42 74 86 1.012 1.020 1.027 SSE 6,7 68,5 85,6
08/2019 17,7 22,5 27,3 26,3 26,7 29,9 41,2 23,5 44 73 82 1.012 1.018 1.022 SE 6,0 69,3 9,8
07/2019 21,4 22,9 25,1 26,4 25,8 30,0 36,9 15,5 51 71 79 1.007 1.015 1.018 SSE 7,8 55,6 5,6
06/2019 13,3 18,3 22,7 22,4 20,1 26,3 34,6 21,3 40 68 81 1.011 1.018 1.024 SE 7,8 74,1 0,0
05/2019 9,4 14,6 20,8 18,6 17,8 22,6 32,2 22,8 51 69 84 1.007 1.018 1.027 SSE 7,9 55,6 17,4
04/2019 8,7 11,5 14,3 15,1 15,4 19,6 29,8 21,1 44 69 95 1.002 1.015 1.028 SO 8,3 87,0 74,2
03/2019 6,0 9,4 16,2 14,5 13,4 19,4 28,7 22,7 43 62 85 1.014 1.025 1.032 S 1,3 63,0 17,4
02/2019 3,9 7,3 11,0 11,9 12,5 17,5 25,3 21,4 36 66 79 997 1.027 1.036 SSO 2,1 75,9 0,0
01/2019 1,4 6,6 12,6 11,0 11,4 16,5 20,4 19,0 44 61 80 1.004 1.021 1.033 SO 2,2 63,0 0,0
Tots els anys disponibles
2019 1,4 14,3 27,3 18,2 11,4 22,5 41,2 39,8 36 68 95 997 1.019 1.036 SSE 6,1 112,7 310,2
2018 2,2 14,7 26,5 18,4 8,7 22,5 35,4 33,2 41 69 93 995 1.018 1.037 OSO 5,0 77,8 772,6
Temperatura (°C)
Humitat relativa (%)
Velocitat del vent i ràfega màxima (km/h)
Direcció del vent (°)
Pressió (hPa)
Precipitació (mm)
Nota sobre les dades: s'avisa a l'usuari de la provisionalitat i no oficialitat d'aquestes dades
Logo AVAMET blanc
Web allotjada a Sollutia
Llicència de Creative CommonsLa web d'AVAMET i els seus continguts estan subjectes a una llicència de
Reconeixement - No Comercial - Compartir igual
Últimes estacions:  Sorita (AVAMET), Massalavés - Ajuntament (Soci/Inforatge), Albuixech - Polígon (Inforatge), La Torre d'en Besora (Ajuntament soci), Xixona - Sogorb Barranc Blanc (Soci), Pedreguer - Patronat (Soci) - - -